Time;durP1;ratioP1;P1;durP2;ratioP2;P2;SDS_P1;SDS_P2;PMS_P1;PMS_P2;Temp;Humidity;BMP_temperature;BMP_pressure;BME280_temperature;BME280_humidity;BME280_pressure;Samples;Min_cycle;Max_cycle;Signal;HPM_P1;HPM_P2
2021/09/21 00:00:10;;;;;;;5.20;4.60;;;;;;;8.04;68.54;94701.97;1612146;88;21153;-57
2021/09/21 00:02:37;;;;;;;7.35;6.20;;;;;;;7.99;68.62;94702.50;1598370;87;21138;-57
2021/09/21 00:05:06;;;;;;;15.03;5.70;;;;;;;7.98;68.70;94698.81;1603415;88;21498;-57
2021/09/21 00:07:34;;;;;;;7.95;5.45;;;;;;;7.95;68.57;94700.47;1594572;88;21082;-57
2021/09/21 00:10:00;;;;;;;4.42;4.03;;;;;;;7.94;68.77;94701.67;1598268;88;21095;-55
2021/09/21 00:12:29;;;;;;;3.83;3.52;;;;;;;7.93;68.98;94711.09;1597767;88;21102;-58
2021/09/21 00:14:57;;;;;;;6.80;3.70;;;;;;;7.89;69.32;94706.28;1624892;87;21164;-56
2021/09/21 00:17:23;;;;;;;6.00;4.75;;;;;;;7.88;69.43;94708.09;1626630;87;21639;-58
2021/09/21 00:19:51;;;;;;;5.45;4.90;;;;;;;7.86;69.77;94707.14;1628817;87;21184;-57
2021/09/21 00:22:18;;;;;;;4.10;3.80;;;;;;;7.82;70.00;94702.36;1628044;87;21015;-57
2021/09/21 00:24:45;;;;;;;5.10;4.60;;;;;;;7.71;70.25;94710.06;1627551;87;21877;-58
2021/09/21 00:27:11;;;;;;;11.25;8.10;;;;;;;7.59;70.61;94701.19;1627088;87;21088;-57
2021/09/21 00:29:40;;;;;;;13.05;8.65;;;;;;;7.51;70.96;94706.66;1623704;87;21079;-58
2021/09/21 00:32:14;;;;;;;4.67;4.25;;;;;;;7.48;71.03;94699.92;1624310;87;20978;-57
2021/09/21 00:34:38;;;;;;;5.10;4.60;;;;;;;7.40;71.06;94706.16;1626521;87;21616;-57
2021/09/21 00:37:13;;;;;;;5.05;4.45;;;;;;;7.30;71.40;94704.44;1627118;87;21118;-57
2021/09/21 00:39:40;;;;;;;5.08;4.67;;;;;;;7.27;71.50;94705.29;1624868;87;21458;-57
2021/09/21 00:42:08;;;;;;;5.15;4.67;;;;;;;7.22;71.48;94706.39;1634481;87;21075;-56
2021/09/21 00:44:36;;;;;;;4.40;4.10;;;;;;;7.17;71.53;94702.80;1623915;87;21634;-57
2021/09/21 00:47:06;;;;;;;4.90;4.50;;;;;;;7.12;71.58;94701.34;1631132;87;21070;-57
2021/09/21 00:49:33;;;;;;;5.08;4.65;;;;;;;7.08;71.83;94710.06;1614439;87;21783;-58
2021/09/21 00:52:03;;;;;;;6.15;5.65;;;;;;;7.04;71.98;94712.86;1604154;87;20995;-57
2021/09/21 00:54:30;;;;;;;4.33;3.95;;;;;;;6.99;72.00;94708.48;1604844;89;20999;-57
2021/09/21 00:56:57;;;;;;;3.80;3.50;;;;;;;6.95;72.34;94709.95;1620592;87;21052;-56
2021/09/21 00:59:24;;;;;;;3.90;3.47;;;;;;;6.94;72.92;94707.05;1597325;87;21525;-56
2021/09/21 01:01:51;;;;;;;4.72;3.40;;;;;;;6.89;73.12;94705.41;1621206;87;21149;-57
2021/09/21 01:04:17;;;;;;;4.12;3.60;;;;;;;6.85;73.51;94711.56;1625734;87;20999;-57
2021/09/21 01:06:44;;;;;;;3.70;3.50;;;;;;;6.85;73.53;94711.56;1633670;86;21592;-57
2021/09/21 01:09:22;;;;;;;4.17;3.87;;;;;;;6.77;73.47;94711.52;1626760;87;21099;-57
2021/09/21 01:11:53;;;;;;;14.90;11.40;;;;;;;6.69;73.70;94707.41;1622133;87;21123;-57
2021/09/21 01:14:21;;;;;;;10.25;8.18;;;;;;;6.62;73.74;94717.11;1627079;86;21225;-56
2021/09/21 01:16:50;;;;;;;6.60;4.78;;;;;;;6.56;73.88;94718.81;1625825;87;21015;-56
2021/09/21 01:19:21;;;;;;;4.42;3.90;;;;;;;6.50;73.94;94717.77;1628023;86;21051;-57
2021/09/21 01:21:50;;;;;;;9.48;4.92;;;;;;;6.46;74.19;94711.58;1623865;86;21000;-57
2021/09/21 01:24:19;;;;;;;7.37;5.42;;;;;;;6.41;74.81;94716.97;1624073;86;21031;-58
2021/09/21 01:26:46;;;;;;;5.17;4.60;;;;;;;6.36;75.47;94722.14;1626368;87;21176;-58
2021/09/21 01:29:13;;;;;;;5.03;4.53;;;;;;;6.31;75.87;94719.30;1623808;87;21040;-58
2021/09/21 01:31:41;;;;;;;3.87;3.52;;;;;;;6.26;76.09;94727.21;1621236;87;21527;-59
2021/09/21 01:34:08;;;;;;;3.22;3.02;;;;;;;6.24;76.18;94730.95;1622965;87;21116;-57
2021/09/21 01:36:34;;;;;;;6.62;3.70;;;;;;;6.23;76.03;94736.25;1598489;88;21046;-58
2021/09/21 01:39:02;;;;;;;3.65;3.35;;;;;;;6.20;76.34;94735.72;1620532;87;21956;-57
2021/09/21 01:41:29;;;;;;;6.03;4.10;;;;;;;6.23;76.67;94737.03;1624008;88;21018;-57
2021/09/21 01:43:55;;;;;;;4.40;4.00;;;;;;;6.30;76.89;94741.59;1622609;88;21007;-57
2021/09/21 01:46:23;;;;;;;5.58;3.95;;;;;;;6.38;76.90;94740.25;1620236;88;20978;-58
2021/09/21 01:48:50;;;;;;;4.90;4.40;;;;;;;6.47;76.60;94737.14;1617173;87;21067;-57
2021/09/21 01:51:30;;;;;;;4.67;4.22;;;;;;;6.48;76.33;94737.92;1598791;88;21538;-58
2021/09/21 01:54:03;;;;;;;5.45;4.20;;;;;;;6.52;76.47;94741.34;1595003;88;21224;-58
2021/09/21 01:59:05;;;;;;;4.78;3.95;;;;;;;6.69;76.44;94755.25;1595144;88;21033;-56
2021/09/21 02:01:32;;;;;;;4.95;4.45;;;;;;;6.72;76.46;94750.30;1599299;88;21030;-58
2021/09/21 02:04:04;;;;;;;4.62;4.22;;;;;;;6.77;76.28;94756.63;1606364;88;21499;-59
2021/09/21 02:06:38;;;;;;;5.37;4.62;;;;;;;6.84;76.15;94753.73;1596445;88;21443;-57
2021/09/21 02:09:08;;;;;;;4.70;4.00;;;;;;;6.90;75.93;94761.03;1598541;88;21042;-57
2021/09/21 02:11:37;;;;;;;5.15;4.15;;;;;;;6.93;75.70;94767.05;1600261;88;21015;-57
2021/09/21 02:14:08;;;;;;;6.28;4.40;;;;;;;6.92;75.81;94769.58;1606324;88;21043;-57
2021/09/21 02:16:35;;;;;;;4.30;3.90;;;;;;;6.96;75.75;94764.04;1606661;88;21114;-57
2021/09/21 02:19:02;;;;;;;6.75;4.12;;;;;;;6.97;75.74;94758.74;1597517;88;21101;-56
2021/09/21 02:21:31;;;;;;;4.85;3.83;;;;;;;6.97;75.88;94766.36;1610291;87;21433;-57
2021/09/21 02:23:59;;;;;;;6.17;3.87;;;;;;;6.94;76.00;94769.95;1627666;87;21149;-57
2021/09/21 02:26:27;;;;;;;3.80;3.50;;;;;;;6.90;76.25;94767.11;1630575;87;20967;-56
2021/09/21 02:28:53;;;;;;;3.80;3.50;;;;;;;6.85;76.36;94765.63;1628510;87;21189;-58
2021/09/21 02:31:22;;;;;;;3.83;3.52;;;;;;;6.87;76.61;94768.71;1627803;87;21022;-57
2021/09/21 02:33:51;;;;;;;7.17;4.78;;;;;;;6.89;76.79;94771.04;1631630;87;21014;-58
2021/09/21 02:36:18;;;;;;;6.33;4.67;;;;;;;6.88;77.10;94770.86;1629957;87;21446;-57
2021/09/21 02:38:44;;;;;;;6.15;5.00;;;;;;;6.95;77.08;94772.07;1627034;87;21042;-58
2021/09/21 02:41:11;;;;;;;10.08;5.50;;;;;;;6.98;76.93;94776.69;1629369;87;21239;-57
2021/09/21 02:43:39;;;;;;;7.92;4.40;;;;;;;6.98;76.83;94781.58;1629760;87;21419;-56
2021/09/21 02:46:06;;;;;;;3.92;3.62;;;;;;;6.97;77.04;94782.77;1629042;87;21081;-57
2021/09/21 02:48:33;;;;;;;3.60;3.30;;;;;;;6.98;76.63;94782.16;1627222;87;21014;-57
2021/09/21 02:50:59;;;;;;;5.17;3.20;;;;;;;6.91;76.59;94788.55;1599015;88;21099;-55
2021/09/21 02:53:26;;;;;;;3.80;3.42;;;;;;;6.85;76.87;94793.59;1595441;88;21251;-57
2021/09/21 02:55:53;;;;;;;3.70;3.40;;;;;;;6.85;76.97;94799.05;1601133;88;21020;-57
2021/09/21 02:58:19;;;;;;;3.77;3.50;;;;;;;6.83;77.11;94798.68;1600811;88;21128;-57
2021/09/21 03:00:48;;;;;;;4.78;3.62;;;;;;;6.86;77.29;94807.43;1600332;88;21011;-57
2021/09/21 03:03:15;;;;;;;5.92;3.30;;;;;;;6.83;77.30;94804.14;1594152;88;21023;-57
2021/09/21 03:05:45;;;;;;;5.30;3.77;;;;;;;6.84;77.41;94802.95;1624952;87;21173;-57
2021/09/21 03:08:14;;;;;;;6.03;3.85;;;;;;;6.88;77.34;94802.31;1621094;88;20999;-56
2021/09/21 03:18:52;;;;;;;4.70;4.28;;;;;;;6.85;77.68;94823.66;1623388;87;21816;-57
2021/09/21 03:21:21;;;;;;;7.80;4.50;;;;;;;6.79;77.71;94819.28;1626959;88;20970;-57
2021/09/21 03:23:49;;;;;;;8.83;6.22;;;;;;;6.76;77.79;94820.70;1623708;88;20983;-58
2021/09/21 03:26:17;;;;;;;5.72;5.15;;;;;;;6.73;78.09;94832.48;1621820;88;37823;-57
2021/09/21 03:28:45;;;;;;;6.67;4.90;;;;;;;6.75;78.09;94830.09;1620750;88;21110;-56
2021/09/21 03:31:12;;;;;;;7.45;4.80;;;;;;;6.74;78.35;94830.68;1621565;87;21685;-58
2021/09/21 03:33:39;;;;;;;6.15;4.83;;;;;;;6.78;78.33;94837.45;1619512;88;21117;-57
2021/09/21 03:36:05;;;;;;;5.90;4.40;;;;;;;6.84;78.05;94835.77;1625993;88;21542;-57
2021/09/21 03:38:32;;;;;;;5.62;4.78;;;;;;;6.92;78.12;94835.81;1620178;88;21105;-57
2021/09/21 03:41:01;;;;;;;5.87;4.95;;;;;;;6.94;78.16;94834.80;1619746;88;21121;-57
2021/09/21 03:43:27;;;;;;;5.87;4.60;;;;;;;6.98;78.24;94832.75;1619419;88;21839;-57
2021/09/21 03:45:56;;;;;;;4.97;4.50;;;;;;;6.99;78.14;94837.81;1621250;88;21503;-57
2021/09/21 03:48:22;;;;;;;6.22;4.40;;;;;;;7.02;78.04;94844.39;1631154;87;21089;-56
2021/09/21 03:50:48;;;;;;;5.42;4.80;;;;;;;7.00;78.13;94844.04;1608093;88;21113;-56
2021/09/21 03:53:15;;;;;;;5.37;4.87;;;;;;;7.02;78.02;94845.17;1606003;88;21586;-57
2021/09/21 03:55:43;;;;;;;5.20;4.75;;;;;;;7.04;78.03;94843.39;1591667;89;21032;-57
2021/09/21 03:58:11;;;;;;;5.75;4.35;;;;;;;7.03;78.14;94842.61;1596685;88;20991;-58
2021/09/21 04:00:39;;;;;;;5.90;4.62;;;;;;;7.06;77.92;94844.49;1602628;88;21010;-59
2021/09/21 04:03:06;;;;;;;6.75;4.60;;;;;;;7.07;77.70;94843.30;1596745;89;21055;-58
2021/09/21 04:05:34;;;;;;;6.67;5.20;;;;;;;7.10;77.56;94841.87;1602533;88;21087;-58
2021/09/21 04:08:00;;;;;;;26.97;14.30;;;;;;;7.13;77.54;94832.06;1604245;88;21130;-57
2021/09/21 04:10:29;;;;;;;22.75;11.93;;;;;;;7.10;77.71;94827.41;1614927;87;21105;-57
2021/09/21 04:12:55;;;;;;;15.38;10.23;;;;;;;7.06;77.70;94830.06;1602856;88;21594;-57
2021/09/21 04:15:22;;;;;;;12.30;8.63;;;;;;;7.01;77.99;94841.48;1601193;88;21090;-58
2021/09/21 04:17:49;;;;;;;7.35;6.12;;;;;;;6.94;78.19;94842.42;1601723;88;20981;-58
2021/09/21 04:20:15;;;;;;;16.42;11.63;;;;;;;6.87;78.50;94841.78;1599628;88;21767;-57
2021/09/21 04:22:44;;;;;;;23.00;13.38;;;;;;;6.83;78.73;94843.80;1613749;88;21047;-57
2021/09/21 04:25:12;;;;;;;21.90;13.03;;;;;;;6.90;79.07;94841.69;1610755;88;20995;-59
2021/09/21 04:27:39;;;;;;;18.23;11.28;;;;;;;7.01;79.17;94846.95;1600647;88;21487;-58
2021/09/21 04:30:09;;;;;;;89.10;41.88;;;;;;;7.14;78.72;94841.19;1617074;87;20999;-57
2021/09/21 04:32:37;;;;;;;29.82;14.78;;;;;;;7.24;77.91;94848.42;1631901;87;21180;-57
2021/09/21 04:35:06;;;;;;;57.40;31.07;;;;;;;7.34;77.32;94850.14;1629344;87;21122;-59
2021/09/21 04:37:32;;;;;;;34.18;19.70;;;;;;;7.41;76.84;94859.59;1604305;86;21208;-58
2021/09/21 04:39:58;;;;;;;11.22;7.75;;;;;;;7.46;76.33;94856.34;1627890;87;21443;-57
2021/09/21 04:42:25;;;;;;;15.85;10.78;;;;;;;7.54;75.94;94856.96;1630196;87;21041;-57
2021/09/21 04:44:53;;;;;;;14.78;9.08;;;;;;;7.59;75.77;94859.97;1629952;87;21296;-58
2021/09/21 04:47:21;;;;;;;6.83;5.17;;;;;;;7.68;75.42;94856.66;1629381;87;21458;-58
2021/09/21 04:49:48;;;;;;;5.95;4.37;;;;;;;7.76;74.52;94858.80;1609896;87;20982;-57
2021/09/21 04:52:15;;;;;;;7.22;4.95;;;;;;;7.72;73.95;94855.36;1580167;88;21027;-57
2021/09/21 04:54:44;;;;;;;6.60;4.85;;;;;;;7.68;73.78;94861.52;1551150;91;21479;-58
2021/09/21 04:57:12;;;;;;;5.72;4.70;;;;;;;7.67;73.86;94859.22;1603387;88;21101;-56
2021/09/21 04:59:39;;;;;;;5.20;4.55;;;;;;;7.68;73.71;94866.99;1597815;89;20987;-57
2021/09/21 05:02:06;;;;;;;11.22;7.15;;;;;;;7.70;73.67;94868.70;1583609;88;21049;-59
2021/09/21 05:04:32;;;;;;;8.30;5.85;;;;;;;7.74;73.80;94868.02;1587683;89;21225;-57
2021/09/21 05:06:59;;;;;;;12.82;9.80;;;;;;;7.83;73.51;94866.84;1575105;89;21061;-58
2021/09/21 05:09:26;;;;;;;10.55;7.30;;;;;;;7.92;72.89;94867.02;1561668;89;21175;-57
2021/09/21 05:11:54;;;;;;;7.83;5.62;;;;;;;8.00;72.52;94870.36;1578683;89;21038;-57
2021/09/21 05:14:21;;;;;;;11.45;7.78;;;;;;;8.01;72.05;94869.95;1565419;91;20995;-58
2021/09/21 05:16:49;;;;;;;9.93;6.53;;;;;;;7.99;71.75;94872.34;1569231;89;21205;-58
2021/09/21 05:19:16;;;;;;;7.62;5.65;;;;;;;7.99;71.64;94872.34;1574035;90;21688;-58
2021/09/21 05:21:45;;;;;;;13.55;5.92;;;;;;;8.03;71.56;94869.53;1572562;89;21146;-57
2021/09/21 05:24:13;;;;;;;6.20;5.12;;;;;;;8.07;71.60;94870.97;1571664;90;21050;-58
2021/09/21 05:26:41;;;;;;;17.00;8.65;;;;;;;8.15;71.40;94869.61;1571389;89;20987;-58
2021/09/21 05:29:09;;;;;;;16.77;6.30;;;;;;;8.19;71.35;94875.80;1569139;91;21150;-57
2021/09/21 05:31:36;;;;;;;16.17;7.58;;;;;;;8.24;71.22;94873.16;1568512;90;21121;-58
2021/09/21 05:34:02;;;;;;;23.52;7.40;;;;;;;8.27;71.17;94882.64;1595388;88;21173;-58
2021/09/21 05:36:30;;;;;;;15.75;8.68;;;;;;;8.37;70.99;94881.63;1577082;90;20988;-58
2021/09/21 05:38:57;;;;;;;14.58;5.80;;;;;;;8.42;70.52;94889.31;1555002;91;21115;-57
2021/09/21 05:41:23;;;;;;;13.15;5.15;;;;;;;8.49;70.11;94886.42;1563675;90;21573;-59
2021/09/21 05:43:52;;;;;;;11.57;5.15;;;;;;;8.61;69.93;94889.06;1564165;91;21092;-60
2021/09/21 05:46:19;;;;;;;12.23;5.20;;;;;;;8.71;68.72;94886.63;1586732;89;21267;-57
2021/09/21 05:48:50;;;;;;;4.50;3.98;;;;;;;8.77;68.42;94891.16;1570095;89;21528;-59
2021/09/21 05:51:25;;;;;;;10.58;5.87;;;;;;;8.82;67.55;94897.48;1587900;89;21105;-58
2021/09/21 05:53:57;;;;;;;9.50;5.90;;;;;;;8.82;66.96;94899.47;1580282;89;21585;-58
2021/09/21 05:56:23;;;;;;;14.90;10.20;;;;;;;8.82;66.45;94900.23;1541828;90;21137;-58
2021/09/21 05:58:51;;;;;;;8.88;6.15;;;;;;;8.85;65.37;94901.34;1569530;89;21178;-58
2021/09/21 06:01:18;;;;;;;15.70;9.28;;;;;;;8.90;64.23;94897.48;1576172;90;21062;-58
2021/09/21 06:03:44;;;;;;;9.95;3.95;;;;;;;8.92;63.76;94912.30;1566913;90;21097;-56
2021/09/21 06:06:12;;;;;;;5.35;4.28;;;;;;;8.88;62.45;94906.13;1600107;88;21189;-57
2021/09/21 06:08:42;;;;;;;16.90;11.22;;;;;;;8.81;61.63;94911.03;1602555;87;21031;-63
2021/09/21 06:11:09;;;;;;;7.15;4.92;;;;;;;8.77;61.64;94910.36;1600959;87;21631;-63
2021/09/21 06:13:35;;;;;;;5.00;4.45;;;;;;;8.74;60.33;94903.00;1620808;87;21096;-59
2021/09/21 06:16:02;;;;;;;13.35;8.43;;;;;;;8.74;59.02;94899.47;1588881;88;21100;-59
2021/09/21 06:18:29;;;;;;;9.80;5.85;;;;;;;8.70;59.29;94908.40;1559607;90;21034;-58
2021/09/21 06:20:56;;;;;;;5.55;3.98;;;;;;;8.71;59.12;94904.45;1600785;87;21081;-61
2021/09/21 06:23:24;;;;;;;9.68;4.50;;;;;;;8.78;58.59;94900.93;1571159;89;21187;-59
2021/09/21 06:25:53;;;;;;;4.72;4.22;;;;;;;8.89;58.81;94904.94;1615226;87;21524;-57
2021/09/21 06:28:19;;;;;;;6.03;4.58;;;;;;;8.99;58.30;94908.01;1622197;87;21066;-62
2021/09/21 06:30:46;;;;;;;15.43;4.83;;;;;;;9.15;58.51;94916.79;1618337;87;21130;-59
2021/09/21 06:33:12;;;;;;;19.90;17.85;;;;;;;9.31;57.33;94909.87;1599211;87;21257;-62
2021/09/21 06:35:39;;;;;;;5.12;4.55;;;;;;;9.41;56.82;94908.82;1618286;86;21350;-59
2021/09/21 06:38:06;;;;;;;5.83;4.22;;;;;;;9.49;56.75;94907.40;1617636;86;21138;-60
2021/09/21 06:40:33;;;;;;;5.40;3.98;;;;;;;9.56;55.91;94907.19;1608684;87;21032;-61
2021/09/21 06:43:01;;;;;;;8.00;4.35;;;;;;;9.63;56.24;94911.12;1610448;87;21124;-59
2021/09/21 06:45:32;;;;;;;5.05;4.65;;;;;;;9.71;56.56;94903.61;1619716;87;21523;-59
2021/09/21 06:47:59;;;;;;;4.92;4.42;;;;;;;9.81;55.88;94908.63;1619147;86;21907;-60
2021/09/21 06:50:27;;;;;;;6.05;4.10;;;;;;;9.91;56.20;94904.77;1612144;87;21140;-58
2021/09/21 06:52:54;;;;;;;6.85;4.47;;;;;;;9.95;55.04;94901.33;1606307;86;21137;-59
2021/09/21 06:55:22;;;;;;;12.53;5.33;;;;;;;9.89;55.32;94904.44;1622833;86;21314;-58
2021/09/21 06:57:50;;;;;;;5.17;4.15;;;;;;;9.81;55.28;94899.00;1615087;86;21073;-59
2021/09/21 07:00:20;;;;;;;6.42;5.25;;;;;;;9.78;55.14;94901.26;1628058;86;21106;-59
2021/09/21 07:02:52;;;;;;;3.47;3.20;;;;;;;9.70;54.90;94898.54;1617732;86;21354;-61
2021/09/21 07:05:19;;;;;;;4.00;3.50;;;;;;;9.66;53.82;94908.87;1624039;86;21148;-60
2021/09/21 07:07:48;;;;;;;6.78;3.90;;;;;;;9.64;54.49;94907.91;1612861;86;21093;-63
2021/09/21 07:10:17;;;;;;;4.50;3.90;;;;;;;9.67;54.38;94914.52;1614883;87;21238;-60
2021/09/21 07:12:44;;;;;;;4.12;3.83;;;;;;;9.65;54.08;94907.33;1626006;86;21427;-65
2021/09/21 07:15:13;;;;;;;7.95;5.33;;;;;;;9.60;53.82;94906.50;1611646;87;21734;-57
2021/09/21 07:17:40;;;;;;;3.87;3.58;;;;;;;9.64;54.81;94901.67;1606599;87;21600;-61
2021/09/21 07:20:09;;;;;;;6.62;3.47;;;;;;;9.76;54.15;94904.44;1600440;87;21064;-62
2021/09/21 07:22:36;;;;;;;5.20;3.40;;;;;;;9.88;53.84;94909.18;1605437;87;21496;-59
2021/09/21 07:25:04;;;;;;;4.08;3.40;;;;;;;9.93;54.48;94902.34;1620253;87;21188;-63
2021/09/21 07:27:32;;;;;;;21.77;6.67;;;;;;;10.00;54.12;94896.66;1621584;87;21556;-60
2021/09/21 07:29:59;;;;;;;5.97;3.30;;;;;;;10.05;53.98;94898.88;1614343;87;21135;-61
2021/09/21 07:32:28;;;;;;;7.65;4.10;;;;;;;10.03;53.63;94908.17;1600255;87;21115;-61
2021/09/21 07:34:55;;;;;;;6.42;4.53;;;;;;;9.96;53.67;94894.63;1604968;86;21073;-59
2021/09/21 07:37:25;;;;;;;6.70;6.00;;;;;;;9.95;53.53;94898.58;1607523;87;21552;-60
2021/09/21 07:39:53;;;;;;;6.83;4.67;;;;;;;9.96;53.97;94896.00;1618258;87;21113;-60
2021/09/21 07:42:20;;;;;;;7.47;4.83;;;;;;;10.03;54.10;94897.17;1615117;86;21648;-59
2021/09/21 07:44:47;;;;;;;9.90;8.70;;;;;;;10.15;54.08;94890.30;1595370;87;21200;-64
2021/09/21 07:47:14;;;;;;;7.12;3.55;;;;;;;10.28;53.48;94895.78;1616207;86;21639;-63
2021/09/21 07:49:41;;;;;;;8.05;5.95;;;;;;;10.36;52.10;94892.37;1608464;87;21811;-57
2021/09/21 07:52:14;;;;;;;9.28;4.20;;;;;;;10.40;52.16;94890.89;1620283;87;21088;-64
2021/09/21 07:54:43;;;;;;;9.18;8.28;;;;;;;10.47;53.02;94878.27;1599478;87;21101;-64
2021/09/21 07:57:10;;;;;;;3.70;3.40;;;;;;;10.65;53.33;94895.73;1616469;87;21521;-63
2021/09/21 07:59:43;;;;;;;4.15;3.75;;;;;;;10.78;51.54;94884.86;1623191;87;21064;-59
2021/09/21 08:02:11;;;;;;;5.95;3.77;;;;;;;10.81;51.62;94884.59;1608909;87;21233;-60
2021/09/21 08:04:42;;;;;;;3.98;3.58;;;;;;;10.82;51.49;94889.63;1616263;86;21123;-59
2021/09/21 08:07:10;;;;;;;5.55;3.47;;;;;;;10.85;50.38;94886.02;1618224;87;21173;-64
2021/09/21 08:09:40;;;;;;;5.53;3.27;;;;;;;10.88;50.54;94880.98;1620353;87;21214;-60
2021/09/21 08:12:12;;;;;;;5.12;3.47;;;;;;;10.94;50.47;94881.95;1606971;87;22015;-63
2021/09/21 08:14:41;;;;;;;8.30;3.77;;;;;;;11.00;49.86;94879.41;1565592;88;21259;-61
2021/09/21 08:17:08;;;;;;;3.85;3.45;;;;;;;11.03;49.67;94884.80;1626908;87;20990;-61
2021/09/21 08:19:35;;;;;;;3.85;3.30;;;;;;;11.06;49.69;94886.66;1626593;86;21092;-57
2021/09/21 08:22:03;;;;;;;4.40;3.90;;;;;;;11.11;47.65;94883.91;1619070;86;21030;-59
2021/09/21 08:24:37;;;;;;;7.12;6.42;;;;;;;11.11;47.57;94881.16;1602052;87;20999;-69
2021/09/21 08:27:06;;;;;;;4.35;3.42;;;;;;;11.16;48.25;94884.12;1562214;86;21549;-58
2021/09/21 08:29:34;;;;;;;4.20;3.80;;;;;;;11.26;48.22;94877.48;1615004;86;21780;-63
2021/09/21 08:32:01;;;;;;;10.38;9.30;;;;;;;11.30;48.27;94878.11;1617591;87;21096;-64
2021/09/21 08:34:32;;;;;;;7.95;3.67;;;;;;;11.39;48.76;94875.41;1613512;86;21077;-63
2021/09/21 08:37:08;;;;;;;8.63;5.47;;;;;;;11.52;47.98;94878.87;1602004;87;21165;-64
2021/09/21 08:39:41;;;;;;;5.15;3.80;;;;;;;11.63;47.17;94879.28;1604063;87;21065;-62
2021/09/21 08:42:12;;;;;;;4.15;3.60;;;;;;;11.69;46.36;94878.09;1618681;86;21086;-63
2021/09/21 08:44:43;;;;;;;4.55;3.25;;;;;;;11.71;45.96;94878.41;1604121;87;21559;-63
2021/09/21 08:47:12;;;;;;;4.33;3.00;;;;;;;11.72;45.27;94879.33;1613758;87;21521;-71
2021/09/21 08:49:42;;;;;;;32.45;5.37;;;;;;;11.70;43.52;94867.98;1588814;88;21710;-61
2021/09/21 08:52:10;;;;;;;9.05;5.65;;;;;;;11.64;45.39;94873.94;1587284;87;22206;-59
2021/09/21 08:54:37;;;;;;;6.20;5.60;;;;;;;11.68;45.43;94870.42;1621053;86;20967;-60
2021/09/21 08:57:05;;;;;;;7.42;6.72;;;;;;;11.74;44.13;94871.37;1619404;86;21184;-59
2021/09/21 08:59:35;;;;;;;5.60;5.10;;;;;;;11.82;44.30;94873.25;1607220;87;21511;-62
2021/09/21 09:02:11;;;;;;;7.05;6.25;;;;;;;11.91;44.74;94864.41;1583723;88;21217;-60
2021/09/21 09:04:39;;;;;;;6.30;3.55;;;;;;;12.02;43.86;94864.78;1568423;90;21179;-61
2021/09/21 09:07:06;;;;;;;5.83;4.33;;;;;;;12.14;43.92;94865.30;1574904;89;21589;-61
2021/09/21 09:09:35;;;;;;;3.37;2.90;;;;;;;12.22;44.69;94860.25;1566276;90;22343;-59
2021/09/21 09:12:04;;;;;;;11.20;3.65;;;;;;;12.28;43.02;94863.34;1575855;90;21011;-61
2021/09/21 09:14:39;;;;;;;7.72;4.50;;;;;;;12.32;44.04;94868.72;1574615;89;21154;-59
2021/09/21 09:17:10;;;;;;;7.53;3.90;;;;;;;12.39;43.58;94869.21;1579582;88;21156;-58
2021/09/21 09:19:44;;;;;;;6.58;3.20;;;;;;;12.49;44.85;94866.62;1583770;89;21082;-60
2021/09/21 09:22:14;;;;;;;6.20;4.22;;;;;;;12.65;44.14;94877.39;1585669;89;21586;-59
2021/09/21 09:24:52;;;;;;;5.15;3.45;;;;;;;12.76;43.09;94876.35;1573632;89;21089;-61
2021/09/21 09:27:21;;;;;;;3.50;3.30;;;;;;;12.90;42.57;94868.86;1555934;90;21058;-62
2021/09/21 09:29:56;;;;;;;8.28;6.10;;;;;;;13.06;42.94;94879.02;1621477;86;21145;-58
2021/09/21 09:32:23;;;;;;;5.92;4.90;;;;;;;13.20;43.02;94870.13;1613847;87;21236;-63
2021/09/21 09:34:51;;;;;;;4.33;3.92;;;;;;;13.38;42.71;94876.25;1609046;86;21616;-64
2021/09/21 09:37:19;;;;;;;3.17;2.87;;;;;;;13.59;42.02;94873.32;1603035;87;21607;-61
2021/09/21 09:39:47;;;;;;;4.47;4.08;;;;;;;13.88;42.09;94882.48;1606768;87;21155;-59
2021/09/21 09:42:14;;;;;;;5.92;5.33;;;;;;;14.30;41.33;94866.08;1618300;87;21799;-58
2021/09/21 09:44:43;;;;;;;2.70;2.40;;;;;;;14.83;40.54;94868.42;1611278;86;21117;-60
2021/09/21 09:47:11;;;;;;;3.50;3.20;;;;;;;15.39;38.69;94865.57;1614886;86;21320;-60
2021/09/21 09:49:42;;;;;;;3.15;2.85;;;;;;;15.95;39.23;94866.09;1605370;87;21038;-59
2021/09/21 09:52:17;;;;;;;4.70;3.00;;;;;;;16.48;37.55;94875.08;1613671;87;21157;-60
2021/09/21 09:54:48;;;;;;;10.55;4.85;;;;;;;16.87;35.57;94876.44;1617306;87;21874;-62
2021/09/21 09:57:16;;;;;;;6.30;2.15;;;;;;;17.09;34.25;94876.73;1618868;86;21031;-60
2021/09/21 09:59:43;;;;;;;10.85;5.75;;;;;;;17.25;32.72;94869.98;1618197;87;21661;-60
2021/09/21 10:02:10;;;;;;;3.08;2.30;;;;;;;17.26;33.46;94874.93;1611674;88;21061;-60
2021/09/21 10:04:38;;;;;;;3.98;1.70;;;;;;;17.30;32.88;94863.71;1613072;86;21141;-63
2021/09/21 10:07:07;;;;;;;2.58;2.05;;;;;;;17.40;32.72;94860.19;1620761;87;20991;-60
2021/09/21 10:09:34;;;;;;;3.27;2.40;;;;;;;17.59;34.07;94876.11;1624749;86;21342;-62
2021/09/21 10:12:04;;;;;;;3.75;1.87;;;;;;;17.95;32.66;94864.34;1607642;87;21136;-60
2021/09/21 10:14:31;;;;;;;4.47;2.30;;;;;;;18.33;32.18;94859.16;1582437;87;21087;-61
2021/09/21 10:17:07;;;;;;;10.63;5.53;;;;;;;18.63;32.57;94855.45;1613132;86;21129;-62
2021/09/21 10:19:40;;;;;;;5.08;1.80;;;;;;;18.92;31.88;94864.87;1622963;87;21091;-60
2021/09/21 10:22:08;;;;;;;2.67;2.40;;;;;;;19.08;30.25;94868.39;1605358;86;21083;-59
2021/09/21 10:24:42;;;;;;;4.03;2.62;;;;;;;19.23;31.06;94862.04;1603833;88;21247;-63
2021/09/21 10:27:14;;;;;;;3.17;2.62;;;;;;;19.58;30.82;94863.19;1601798;88;21594;-62
2021/09/21 10:29:42;;;;;;;3.35;2.22;;;;;;;19.76;29.39;94857.80;1575519;88;21629;-60
2021/09/21 10:32:13;;;;;;;3.83;2.00;;;;;;;19.84;29.68;94863.02;1608151;87;22238;-63
2021/09/21 10:34:45;;;;;;;3.17;2.40;;;;;;;19.94;29.78;94855.94;1602819;88;21547;-63
2021/09/21 10:37:13;;;;;;;;;;;;;;;20.12;29.04;94856.23;1605426;87;21142;-63
2021/09/21 10:39:41;;;;;;;2.58;1.25;;;;;;;20.43;28.45;94853.22;1584790;88;20579;-60
2021/09/21 10:42:10;;;;;;;3.12;1.52;;;;;;;20.71;28.86;94855.38;1603298;87;21069;-60
2021/09/21 10:44:52;;;;;;;2.80;2.00;;;;;;;20.86;29.14;94853.08;1607180;87;21154;-62
2021/09/21 10:47:25;;;;;;;3.20;1.50;;;;;;;21.26;29.08;94858.09;1578931;88;21129;-63
2021/09/21 10:50:12;;;;;;;6.83;1.40;;;;;;;21.44;28.07;94842.13;1587226;88;21611;-61
2021/09/21 10:52:39;;;;;;;2.20;1.95;;;;;;;21.48;27.72;94856.61;1591955;88;21586;-61
2021/09/21 10:55:09;;;;;;;2.80;2.45;;;;;;;21.46;27.93;94849.37;1624875;86;21121;-62
2021/09/21 10:57:41;;;;;;;2.75;1.95;;;;;;;21.44;27.72;94849.88;1626360;86;21154;-61
2021/09/21 11:00:15;;;;;;;5.92;1.90;;;;;;;21.39;28.97;94854.09;1630524;87;21479;-62
2021/09/21 11:02:53;;;;;;;8.45;1.60;;;;;;;21.51;28.06;94849.98;1627838;87;21108;-59
2021/09/21 11:05:26;;;;;;;3.00;1.87;;;;;;;21.65;26.36;94857.34;1628304;86;21545;-61
2021/09/21 11:08:01;;;;;;;1.60;1.25;;;;;;;21.47;27.51;94855.84;1634916;86;21064;-59
2021/09/21 11:10:34;;;;;;;2.02;1.82;;;;;;;21.75;26.44;94858.55;1613010;86;21567;-59
2021/09/21 11:13:08;;;;;;;3.62;1.57;;;;;;;21.97;26.64;94866.83;1600171;87;21528;-66
2021/09/21 11:15:37;;;;;;;6.85;1.80;;;;;;;22.09;26.26;94864.20;1584207;88;21025;-59
2021/09/21 11:18:11;;;;;;;3.45;1.57;;;;;;;22.10;26.59;94869.94;1602953;88;21154;-59
2021/09/21 11:20:55;;;;;;;3.47;1.77;;;;;;;22.00;26.03;94879.83;1603934;87;21545;-65
2021/09/21 11:23:33;;;;;;;1.90;1.75;;;;;;;21.73;26.68;94872.31;1600562;88;21132;-69
2021/09/21 11:26:05;;;;;;;2.20;2.00;;;;;;;21.40;27.25;94871.00;1602510;88;21125;-65
2021/09/21 11:28:38;;;;;;;4.28;1.80;;;;;;;21.13;27.62;94876.06;1602268;88;21156;-62
2021/09/21 11:31:05;;;;;;;5.95;2.35;;;;;;;21.16;28.10;94863.83;1603923;87;21082;-65
2021/09/21 11:33:38;;;;;;;8.88;2.60;;;;;;;21.43;27.99;94861.57;1614965;87;21120;-59
2021/09/21 11:36:08;;;;;;;;;;;;;;;21.80;27.82;94877.38;1608987;87;21248;-59
2021/09/21 11:38:41;;;;;;;10.03;1.92;;;;;;;22.13;27.11;94868.89;1615558;86;20216;-61
2021/09/21 11:41:09;;;;;;;5.42;1.92;;;;;;;22.22;26.61;94878.41;1612883;87;21117;-64
2021/09/21 11:43:38;;;;;;;2.17;1.80;;;;;;;21.99;27.34;94882.51;1618860;87;21169;-67
2021/09/21 11:46:05;;;;;;;2.67;2.08;;;;;;;22.15;27.36;94870.53;1607068;87;21613;-62
2021/09/21 11:48:32;;;;;;;2.90;1.70;;;;;;;22.18;26.84;94872.95;1620519;87;21130;-64
2021/09/21 11:51:00;;;;;;;8.08;1.98;;;;;;;21.83;27.02;94879.15;1620194;87;21557;-62
2021/09/21 11:53:29;;;;;;;5.70;2.22;;;;;;;21.24;27.92;94871.19;1626955;87;21070;-63